createdAt,value
2024-03-05T00:01:38.612Z,8.08
2024-03-05T00:04:06.526Z,7.96
2024-03-05T00:06:34.248Z,8.05
2024-03-05T00:09:01.253Z,8.11
2024-03-05T00:11:28.308Z,8.31
2024-03-05T00:13:55.412Z,8.41
2024-03-05T00:16:22.499Z,8.21
2024-03-05T00:18:49.619Z,8.34
2024-03-05T00:21:16.752Z,8.48
2024-03-05T00:23:43.764Z,8.30
2024-03-05T00:26:16.087Z,7.95
2024-03-05T00:28:43.685Z,7.97
2024-03-05T00:31:10.970Z,7.92
2024-03-05T00:33:38.040Z,7.84
2024-03-05T00:36:06.361Z,7.72
2024-03-05T00:38:35.381Z,7.79
2024-03-05T00:41:03.041Z,7.76
2024-03-05T00:43:30.124Z,7.83
2024-03-05T00:45:57.340Z,7.85
2024-03-05T00:48:24.856Z,7.92
2024-03-05T00:50:52.260Z,7.88
2024-03-05T00:53:19.630Z,7.80
2024-03-05T00:55:46.702Z,7.85
2024-03-05T00:58:14.517Z,7.79
2024-03-05T01:00:41.763Z,7.87
2024-03-05T01:03:09.145Z,7.87
2024-03-05T01:05:37.610Z,7.96
2024-03-05T01:08:04.973Z,8.11
2024-03-05T01:10:32.181Z,8.03
2024-03-05T01:12:59.359Z,7.94
2024-03-05T01:15:26.718Z,8.04
2024-03-05T01:17:53.846Z,8.24
2024-03-05T01:20:21.655Z,8.03
2024-03-05T01:22:48.890Z,8.04
2024-03-05T01:25:18.335Z,7.93
2024-03-05T01:27:45.672Z,7.87
2024-03-05T01:30:13.072Z,7.97
2024-03-05T01:32:40.278Z,7.98
2024-03-05T01:35:11.731Z,8.13
2024-03-05T01:37:39.360Z,7.91
2024-03-05T01:40:07.183Z,8.00
2024-03-05T01:42:34.279Z,8.02
2024-03-05T01:45:01.473Z,8.14
2024-03-05T01:47:28.996Z,8.30
2024-03-05T01:49:56.670Z,8.20
2024-03-05T01:52:24.556Z,8.13
2024-03-05T01:54:56.783Z,8.23
2024-03-05T01:57:25.874Z,8.27
2024-03-05T01:59:52.950Z,8.19
2024-03-05T02:02:20.164Z,7.97
2024-03-05T02:04:48.793Z,8.19
2024-03-05T02:07:18.971Z,8.25
2024-03-05T02:09:46.190Z,8.12
2024-03-05T02:12:13.212Z,8.11
2024-03-05T02:14:40.778Z,8.14
2024-03-05T02:17:09.480Z,8.08
2024-03-05T02:19:37.517Z,8.00
2024-03-05T02:22:04.979Z,8.06
2024-03-05T02:24:32.173Z,8.12
2024-03-05T02:27:05.977Z,8.15
2024-03-05T02:29:35.688Z,8.15
2024-03-05T02:32:02.964Z,8.04
2024-03-05T02:34:30.016Z,7.93
2024-03-05T02:36:59.052Z,7.96
2024-03-05T02:39:28.475Z,8.03
2024-03-05T02:41:59.531Z,8.05
2024-03-05T02:44:28.068Z,7.99
2024-03-05T02:46:55.365Z,8.09
2024-03-05T02:49:22.444Z,8.05
2024-03-05T02:51:49.535Z,8.34
2024-03-05T02:54:16.663Z,8.18
2024-03-05T02:56:43.688Z,8.29
2024-03-05T02:59:10.705Z,8.13
2024-03-05T03:01:38.100Z,8.28
2024-03-05T03:04:06.804Z,8.46
2024-03-05T03:06:34.062Z,8.77
2024-03-05T03:09:01.156Z,8.60
2024-03-05T03:11:29.037Z,8.42
2024-03-05T03:13:56.837Z,8.90
2024-03-05T03:16:24.312Z,8.93
2024-03-05T03:18:52.200Z,8.50
2024-03-05T03:21:19.464Z,8.62
2024-03-05T03:23:46.568Z,9.12
2024-03-05T03:26:14.138Z,8.80
2024-03-05T03:28:41.213Z,9.02
2024-03-05T03:31:12.309Z,8.65
2024-03-05T03:33:40.613Z,8.82
2024-03-05T03:36:08.746Z,8.75
2024-03-05T03:38:36.499Z,8.92
2024-03-05T03:41:06.733Z,8.74
2024-03-05T03:43:33.932Z,8.56
2024-03-05T03:46:00.978Z,8.51
2024-03-05T03:48:27.961Z,8.37
2024-03-05T03:50:54.952Z,8.37
2024-03-05T03:53:22.268Z,8.55
2024-03-05T03:55:50.063Z,8.70
2024-03-05T03:58:17.362Z,8.49
2024-03-05T04:00:46.230Z,8.43
2024-03-05T04:03:13.376Z,8.85
2024-03-05T04:05:40.439Z,8.79
2024-03-05T04:08:07.744Z,8.61
2024-03-05T04:10:34.882Z,8.27
2024-03-05T04:13:01.958Z,8.42
2024-03-05T04:15:29.186Z,8.42
2024-03-05T04:17:56.746Z,8.65
2024-03-05T04:20:23.803Z,8.71
2024-03-05T04:22:50.908Z,8.80
2024-03-05T04:25:19.384Z,8.36
2024-03-05T04:27:49.169Z,8.72
2024-03-05T04:30:16.463Z,9.11
2024-03-05T04:32:58.015Z,8.71
2024-03-05T04:35:27.894Z,8.74
2024-03-05T04:37:55.122Z,8.58
2024-03-05T04:40:22.812Z,8.59
2024-03-05T04:42:50.462Z,8.75
2024-03-05T04:45:18.910Z,8.53
2024-03-05T04:47:46.156Z,8.75
2024-03-05T04:50:16.051Z,8.72
2024-03-05T04:52:44.150Z,8.69
2024-03-05T04:55:11.608Z,8.96
2024-03-05T04:57:38.651Z,8.85
2024-03-05T05:00:21.145Z,8.97
2024-03-05T05:02:49.221Z,8.63
2024-03-05T05:05:19.888Z,8.87
2024-03-05T05:07:47.877Z,9.03
2024-03-05T05:10:15.257Z,9.09
2024-03-05T05:12:44.936Z,9.36
2024-03-05T05:15:13.734Z,9.53
2024-03-05T05:17:41.600Z,9.09
2024-03-05T05:20:09.935Z,9.09
2024-03-05T05:22:43.149Z,9.46
2024-03-05T05:25:10.283Z,9.50
2024-03-05T05:27:37.755Z,9.68
2024-03-05T05:30:09.470Z,9.69
2024-03-05T05:32:41.280Z,9.96
2024-03-05T05:35:09.580Z,10.13
2024-03-05T05:37:38.273Z,10.05
2024-03-05T05:40:07.196Z,10.15
2024-03-05T05:42:34.319Z,10.23
2024-03-05T05:45:01.700Z,10.75
2024-03-05T05:47:29.052Z,11.54
2024-03-05T05:49:56.300Z,12.02
2024-03-05T05:52:23.974Z,11.69
2024-03-05T05:54:51.351Z,11.51
2024-03-05T05:57:19.345Z,10.99
2024-03-05T05:59:46.549Z,11.75
2024-03-05T06:02:14.595Z,11.82
2024-03-05T06:04:42.959Z,11.89
2024-03-05T06:07:12.811Z,11.39
2024-03-05T06:09:42.768Z,11.01
2024-03-05T06:12:10.442Z,10.25
2024-03-05T06:14:37.468Z,10.69
2024-03-05T06:17:04.867Z,11.21
2024-03-05T06:19:32.030Z,10.54
2024-03-05T06:21:59.109Z,10.47
2024-03-05T06:24:26.642Z,10.10
2024-03-05T06:26:53.679Z,10.39
2024-03-05T06:29:20.708Z,10.26
2024-03-05T06:31:49.164Z,9.86
2024-03-05T06:34:16.612Z,9.93
2024-03-05T06:36:47.891Z,10.74
2024-03-05T06:39:30.761Z,11.17
2024-03-05T06:41:59.927Z,11.46
2024-03-05T06:44:37.020Z,11.74
2024-03-05T06:47:06.178Z,12.25
2024-03-05T06:49:39.951Z,12.07
2024-03-05T06:52:28.194Z,12.10
2024-03-05T06:55:18.538Z,12.07
2024-03-05T06:57:48.180Z,12.57
2024-03-05T07:00:18.804Z,12.12
2024-03-05T07:02:46.032Z,11.85
2024-03-05T07:05:13.773Z,11.42
2024-03-05T07:07:41.131Z,11.54
2024-03-05T07:10:15.366Z,12.85
2024-03-05T07:12:46.313Z,13.67
2024-03-05T07:15:16.260Z,15.60
2024-03-05T07:17:46.160Z,15.87
2024-03-05T07:20:20.014Z,16.85
2024-03-05T07:22:48.328Z,18.16
2024-03-05T07:25:18.420Z,19.24
2024-03-05T07:27:46.789Z,18.47
2024-03-05T07:30:17.209Z,18.08
2024-03-05T07:32:48.681Z,16.63
2024-03-05T07:35:17.389Z,15.40
2024-03-05T07:37:48.181Z,17.15
2024-03-05T07:40:21.856Z,17.09
2024-03-05T07:42:57.304Z,16.64
2024-03-05T07:45:24.670Z,15.98
2024-03-05T07:47:51.959Z,15.82
2024-03-05T07:50:19.304Z,16.05
2024-03-05T07:52:48.204Z,17.50
2024-03-05T07:55:25.778Z,18.46
2024-03-05T07:57:57.982Z,15.71
2024-03-05T08:00:26.174Z,16.73
2024-03-05T08:02:56.770Z,16.91
2024-03-05T08:05:24.604Z,16.27
2024-03-05T08:07:57.713Z,16.71
2024-03-05T08:10:25.597Z,17.31
2024-03-05T08:12:57.101Z,15.92
2024-03-05T08:15:28.128Z,16.23
2024-03-05T08:17:57.745Z,17.24
2024-03-05T08:20:27.293Z,18.88
2024-03-05T08:22:55.758Z,18.49
2024-03-05T08:25:24.338Z,19.45
2024-03-05T08:28:00.131Z,18.64
2024-03-05T08:30:32.887Z,18.59
2024-03-05T08:33:04.572Z,19.38
2024-03-05T08:35:32.598Z,20.20
2024-03-05T08:38:01.577Z,20.83
2024-03-05T08:40:34.160Z,19.47
2024-03-05T08:43:05.160Z,20.12
2024-03-05T08:45:33.229Z,20.13
2024-03-05T08:48:00.570Z,17.63
2024-03-05T08:50:30.693Z,17.43
2024-03-05T08:52:59.871Z,16.12
2024-03-05T08:55:28.237Z,16.38
2024-03-05T08:57:56.346Z,16.23
2024-03-05T09:00:33.445Z,17.34
2024-03-05T09:03:13.562Z,18.60
2024-03-05T09:05:44.366Z,17.80
2024-03-05T09:08:14.900Z,18.93
2024-03-05T09:10:42.233Z,18.20
2024-03-05T09:13:09.555Z,15.70
2024-03-05T09:15:41.478Z,15.26
2024-03-05T09:18:14.238Z,14.71
2024-03-05T09:20:43.709Z,14.57
2024-03-05T09:23:11.349Z,14.84
2024-03-05T09:25:42.185Z,14.59
2024-03-05T09:28:09.342Z,14.24
2024-03-05T09:30:36.350Z,14.38
2024-03-05T09:33:04.160Z,16.44
2024-03-05T09:35:31.689Z,18.23
2024-03-05T09:37:58.991Z,17.84
2024-03-05T09:40:26.607Z,15.30
2024-03-05T09:42:59.545Z,14.29
2024-03-05T09:45:31.869Z,14.01
2024-03-05T09:48:00.071Z,13.94
2024-03-05T09:50:27.363Z,14.66
2024-03-05T09:52:55.135Z,15.51
2024-03-05T09:55:22.477Z,15.11
2024-03-05T09:57:50.538Z,14.64
2024-03-05T10:00:21.963Z,15.85
2024-03-05T10:02:52.206Z,15.88
2024-03-05T10:05:20.590Z,16.06
2024-03-05T10:07:50.228Z,17.16
2024-03-05T10:10:22.203Z,14.45
2024-03-05T10:12:51.618Z,13.83
2024-03-05T10:15:22.518Z,13.92
2024-03-05T10:17:54.115Z,13.70
2024-03-05T10:20:38.549Z,13.33
2024-03-05T10:23:11.111Z,13.44
2024-03-05T10:25:38.469Z,13.21
2024-03-05T10:28:07.624Z,13.49
2024-03-05T10:30:37.757Z,13.74
2024-03-05T10:33:09.180Z,13.97
2024-03-05T10:35:40.021Z,13.79
2024-03-05T10:38:14.055Z,13.98
2024-03-05T10:40:46.297Z,15.12
2024-03-05T10:43:19.872Z,16.91
2024-03-05T10:45:48.722Z,18.33
2024-03-05T10:48:19.572Z,18.86
2024-03-05T10:50:50.345Z,18.25
2024-03-05T10:53:18.362Z,18.01
2024-03-05T10:55:46.339Z,18.31
2024-03-05T10:58:15.103Z,18.14
2024-03-05T11:00:45.243Z,19.51
2024-03-05T11:03:14.401Z,19.84
2024-03-05T11:05:51.797Z,18.57
2024-03-05T11:08:21.075Z,19.01
2024-03-05T11:10:56.586Z,18.07
2024-03-05T11:13:24.547Z,18.90
2024-03-05T11:15:53.951Z,19.15
2024-03-05T11:18:33.176Z,17.41
2024-03-05T11:21:13.322Z,15.69
2024-03-05T11:23:44.508Z,15.59
2024-03-05T11:26:23.476Z,16.77
2024-03-05T11:28:54.736Z,18.06
2024-03-05T11:31:22.586Z,18.68
2024-03-05T11:34:18.942Z,19.88
2024-03-05T11:36:46.646Z,17.07
2024-03-05T11:39:20.619Z,17.90
2024-03-05T11:41:49.263Z,17.48
2024-03-05T11:44:59.830Z,17.90
2024-03-05T11:47:27.196Z,17.96
2024-03-05T11:49:54.536Z,18.85
2024-03-05T11:52:22.496Z,18.87
2024-03-05T11:55:06.737Z,18.29
2024-03-05T11:57:34.730Z,17.91
2024-03-05T12:00:01.931Z,17.09
2024-03-05T12:02:29.249Z,17.20
2024-03-05T12:05:04.723Z,16.78
2024-03-05T12:07:31.895Z,17.62
2024-03-05T12:09:59.058Z,16.85
2024-03-05T12:12:26.267Z,16.24
2024-03-05T12:14:55.192Z,15.37
2024-03-05T12:17:24.496Z,15.65
2024-03-05T12:20:11.374Z,15.49
2024-03-05T12:22:41.598Z,14.22
2024-03-05T12:25:09.962Z,14.89
2024-03-05T12:27:39.643Z,15.05
2024-03-05T12:30:08.429Z,14.59
2024-03-05T12:32:38.074Z,15.02
2024-03-05T12:35:06.702Z,15.05
2024-03-05T12:37:35.486Z,14.74
2024-03-05T12:40:08.925Z,14.28
2024-03-05T12:42:36.177Z,13.40
2024-03-05T12:45:09.511Z,12.76
2024-03-05T12:47:38.185Z,11.94
2024-03-05T12:50:08.550Z,11.88
2024-03-05T12:52:36.516Z,12.13
2024-03-05T12:55:11.424Z,12.37
2024-03-05T12:57:38.985Z,12.84
2024-03-05T13:00:12.352Z,12.54
2024-03-05T13:02:43.691Z,12.24
2024-03-05T13:05:11.554Z,12.65
2024-03-05T13:07:39.649Z,11.83
2024-03-05T13:10:13.122Z,12.74
2024-03-05T13:12:40.598Z,13.69
2024-03-05T13:15:08.360Z,13.53
2024-03-05T13:17:35.725Z,13.23
2024-03-05T13:20:03.910Z,13.62
2024-03-05T13:22:31.456Z,14.81
2024-03-05T13:24:58.576Z,14.37
2024-03-05T13:27:25.847Z,14.87
2024-03-05T13:30:01.503Z,15.21
2024-03-05T13:32:38.519Z,14.02
2024-03-05T13:35:08.354Z,12.87
2024-03-05T13:37:39.611Z,12.43
2024-03-05T13:40:14.321Z,12.39
2024-03-05T13:42:41.453Z,12.08
2024-03-05T13:45:13.388Z,12.11
2024-03-05T13:47:41.156Z,11.55
2024-03-05T13:50:12.966Z,11.40
2024-03-05T13:52:49.696Z,11.45
2024-03-05T13:55:17.550Z,11.21
2024-03-05T13:57:44.617Z,10.71
2024-03-05T14:00:20.851Z,10.69
2024-03-05T14:02:48.951Z,10.91
2024-03-05T14:05:16.685Z,10.77
2024-03-05T14:07:45.780Z,10.91
2024-03-05T14:10:13.105Z,10.66
2024-03-05T14:12:41.624Z,10.44
2024-03-05T14:15:22.135Z,10.45
2024-03-05T14:17:53.456Z,10.33
2024-03-05T14:20:26.092Z,10.52
2024-03-05T14:22:55.621Z,10.79
2024-03-05T14:25:22.901Z,10.75
2024-03-05T14:27:50.024Z,10.98
2024-03-05T14:30:20.616Z,11.65
2024-03-05T14:32:48.249Z,11.83
2024-03-05T14:35:15.658Z,11.76
2024-03-05T14:37:44.270Z,11.41
2024-03-05T14:40:12.342Z,11.41
2024-03-05T14:42:39.517Z,11.29
2024-03-05T14:45:07.448Z,11.04
2024-03-05T14:47:34.718Z,10.93
2024-03-05T14:50:01.900Z,10.75
2024-03-05T14:52:29.032Z,11.09
2024-03-05T14:54:58.252Z,10.79
2024-03-05T14:57:25.421Z,10.85
2024-03-05T14:59:52.488Z,10.62
2024-03-05T15:02:19.639Z,10.38
2024-03-05T15:04:46.810Z,10.12
2024-03-05T15:07:13.975Z,10.29
2024-03-05T15:09:41.446Z,9.61
2024-03-05T15:12:11.021Z,10.01
2024-03-05T15:14:43.456Z,10.51
2024-03-05T15:17:12.049Z,10.37
2024-03-05T15:19:39.169Z,10.17
2024-03-05T15:22:07.521Z,10.36
2024-03-05T15:24:34.644Z,10.28
2024-03-05T15:27:05.748Z,10.28
2024-03-05T15:29:33.977Z,9.81
2024-03-05T15:32:02.839Z,9.81
2024-03-05T15:34:30.301Z,9.60
2024-03-05T15:37:00.235Z,9.91
2024-03-05T15:39:27.296Z,9.75
2024-03-05T15:41:54.942Z,9.72
2024-03-05T15:44:21.978Z,9.68
2024-03-05T15:46:49.903Z,9.45
2024-03-05T15:49:17.030Z,9.81
2024-03-05T15:51:44.103Z,9.94
2024-03-05T15:54:11.795Z,9.84
2024-03-05T15:56:58.762Z,10.06
2024-03-05T15:59:44.470Z,10.19
2024-03-05T16:02:11.711Z,10.08
2024-03-05T16:04:57.507Z,10.31
2024-03-05T16:07:26.351Z,10.25
2024-03-05T16:09:53.498Z,10.33
2024-03-05T16:12:20.663Z,10.11
2024-03-05T16:14:47.776Z,10.05
2024-03-05T16:17:14.829Z,9.96
2024-03-05T16:19:42.607Z,10.46
2024-03-05T16:22:10.279Z,10.09
2024-03-05T16:24:37.496Z,9.78
2024-03-05T16:27:04.735Z,9.88
2024-03-05T16:29:31.910Z,9.90
2024-03-05T16:31:59.880Z,9.72
2024-03-05T16:34:27.109Z,9.27
2024-03-05T16:36:54.905Z,9.77
2024-03-05T16:39:22.217Z,10.37
2024-03-05T16:41:49.470Z,10.01
2024-03-05T16:44:17.075Z,10.28
2024-03-05T16:46:46.664Z,9.97
2024-03-05T16:49:14.063Z,9.99
2024-03-05T16:51:43.144Z,9.46
2024-03-05T16:54:11.661Z,9.53
2024-03-05T16:56:38.682Z,10.29
2024-03-05T16:59:08.695Z,10.43
2024-03-05T17:01:36.033Z,10.27
2024-03-05T17:04:06.999Z,9.90
2024-03-05T17:06:34.765Z,10.56
2024-03-05T17:09:02.821Z,10.81
2024-03-05T17:11:30.548Z,10.85
2024-03-05T17:13:57.734Z,9.55
2024-03-05T17:16:26.766Z,9.49
2024-03-05T17:18:53.970Z,9.41
2024-03-05T17:21:20.996Z,9.48
2024-03-05T17:23:48.554Z,9.24
2024-03-05T17:26:17.462Z,9.37
2024-03-05T17:28:45.058Z,9.28
2024-03-05T17:31:13.135Z,9.03
2024-03-05T17:33:40.612Z,9.41
2024-03-05T17:36:08.028Z,9.31
2024-03-05T17:38:35.161Z,9.37
2024-03-05T17:41:04.788Z,9.41
2024-03-05T17:43:32.297Z,9.19
2024-03-05T17:46:00.448Z,9.17
2024-03-05T17:48:28.703Z,9.05
2024-03-05T17:50:56.162Z,9.09
2024-03-05T17:53:23.275Z,9.17
2024-03-05T17:55:50.778Z,8.97
2024-03-05T17:58:19.868Z,8.72
2024-03-05T18:00:47.635Z,8.81
2024-03-05T18:03:23.707Z,9.28
2024-03-05T18:05:51.298Z,9.54
2024-03-05T18:08:18.498Z,9.87
2024-03-05T18:10:47.047Z,9.76
2024-03-05T18:13:16.178Z,9.64
2024-03-05T18:15:46.370Z,9.99
2024-03-05T18:18:15.709Z,9.85
2024-03-05T18:20:44.929Z,9.49
2024-03-05T18:23:13.294Z,9.09
2024-03-05T18:25:40.539Z,9.09
2024-03-05T18:28:10.936Z,9.17
2024-03-05T18:30:43.558Z,9.00
2024-03-05T18:33:12.835Z,8.96
2024-03-05T18:35:41.840Z,8.79
2024-03-05T18:40:41.422Z,8.91
2024-03-05T18:43:11.243Z,8.64
2024-03-05T18:45:38.881Z,8.50
2024-03-05T18:48:10.103Z,8.53
2024-03-05T18:50:39.180Z,8.70
2024-03-05T18:53:07.763Z,8.70
2024-03-05T18:55:37.697Z,8.73
2024-03-05T18:58:09.913Z,8.74
2024-03-05T19:00:41.664Z,8.52
2024-03-05T19:03:09.180Z,9.27
2024-03-05T19:05:37.816Z,9.43
2024-03-05T19:08:07.049Z,9.80
2024-03-05T19:10:34.956Z,9.68
2024-03-05T19:13:05.124Z,9.62
2024-03-05T19:15:32.386Z,9.40
2024-03-05T19:17:59.601Z,9.30
2024-03-05T19:20:27.435Z,9.65
2024-03-05T19:22:55.365Z,9.81
2024-03-05T19:25:23.724Z,9.58
2024-03-05T19:27:52.265Z,9.06
2024-03-05T19:30:19.734Z,9.20
2024-03-05T19:32:48.118Z,9.22
2024-03-05T19:35:18.643Z,9.05
2024-03-05T19:37:49.146Z,9.47
2024-03-05T19:40:18.099Z,9.72
2024-03-05T19:42:47.430Z,9.42
2024-03-05T19:45:15.123Z,9.32
2024-03-05T19:47:42.779Z,9.35
2024-03-05T19:50:14.908Z,9.50
2024-03-05T19:52:42.582Z,9.46
2024-03-05T19:55:10.425Z,9.48
2024-03-05T19:57:38.442Z,10.04
2024-03-05T20:00:13.350Z,9.87
2024-03-05T20:02:40.884Z,10.02
2024-03-05T20:05:08.470Z,10.29
2024-03-05T20:07:35.705Z,9.49
2024-03-05T20:10:03.061Z,9.87
2024-03-05T20:12:30.447Z,10.07
2024-03-05T20:14:57.513Z,9.77
2024-03-05T20:17:27.312Z,9.90
2024-03-05T20:19:55.195Z,9.26
2024-03-05T20:22:25.853Z,9.43
2024-03-05T20:24:59.951Z,9.51
2024-03-05T20:27:28.925Z,9.67
2024-03-05T20:29:57.071Z,9.61
2024-03-05T20:32:30.613Z,9.19
2024-03-05T20:34:58.498Z,9.48
2024-03-05T20:37:25.710Z,9.47
2024-03-05T20:39:55.964Z,9.48
2024-03-05T20:42:23.153Z,9.74
2024-03-05T20:44:50.327Z,9.34
2024-03-05T20:47:17.827Z,8.98
2024-03-05T20:49:46.817Z,9.39
2024-03-05T20:52:14.046Z,9.46
2024-03-05T20:54:41.231Z,9.61
2024-03-05T20:57:08.406Z,9.47
2024-03-05T20:59:35.578Z,9.42
2024-03-05T21:02:10.900Z,9.46
2024-03-05T21:04:39.462Z,9.44
2024-03-05T21:07:07.477Z,9.50
2024-03-05T21:09:35.115Z,9.54
2024-03-05T21:12:02.418Z,9.42
2024-03-05T21:14:29.513Z,9.19
2024-03-05T21:16:56.743Z,9.40
2024-03-05T21:19:27.847Z,9.38
2024-03-05T21:21:55.043Z,9.45
2024-03-05T21:24:24.550Z,9.13
2024-03-05T21:29:21.820Z,9.15
2024-03-05T21:31:49.144Z,9.23
2024-03-05T21:34:16.228Z,9.07
2024-03-05T21:36:44.350Z,9.40
2024-03-05T21:39:14.746Z,9.23
2024-03-05T21:41:43.238Z,9.58
2024-03-05T21:44:10.550Z,9.43
2024-03-05T21:46:38.354Z,9.05
2024-03-05T21:49:06.761Z,9.07
2024-03-05T21:51:34.031Z,9.09
2024-03-05T21:54:01.138Z,9.24
2024-03-05T21:56:28.510Z,9.76
2024-03-05T21:58:55.691Z,9.61
2024-03-05T22:01:23.383Z,9.44
2024-03-05T22:03:50.472Z,9.16
2024-03-05T22:06:23.838Z,9.32
2024-03-05T22:08:52.434Z,9.17
2024-03-05T22:11:19.820Z,9.28
2024-03-05T22:13:48.599Z,9.38
2024-03-05T22:16:15.925Z,9.17
2024-03-05T22:18:43.886Z,9.22
2024-03-05T22:21:11.864Z,9.40
2024-03-05T22:23:38.915Z,9.12
2024-03-05T22:26:06.014Z,9.27
2024-03-05T22:28:33.297Z,9.49
2024-03-05T22:31:01.100Z,9.57
2024-03-05T22:33:28.258Z,9.39
2024-03-05T22:35:55.346Z,9.24
2024-03-05T22:38:22.631Z,9.13
2024-03-05T22:40:49.828Z,9.08
2024-03-05T22:43:17.060Z,9.19
2024-03-05T22:45:44.230Z,9.29
2024-03-05T22:48:11.437Z,9.36
2024-03-05T22:50:38.486Z,9.34
2024-03-05T22:53:05.657Z,9.31
2024-03-05T22:55:32.777Z,9.37
2024-03-05T22:57:59.930Z,8.93
2024-03-05T23:00:36.129Z,8.60
2024-03-05T23:03:07.159Z,8.97
2024-03-05T23:05:34.243Z,8.81
2024-03-05T23:08:01.578Z,9.38
2024-03-05T23:10:30.012Z,9.31
2024-03-05T23:12:57.870Z,8.95
2024-03-05T23:15:28.654Z,8.88
2024-03-05T23:17:55.725Z,8.85
2024-03-05T23:20:22.976Z,9.00
2024-03-05T23:22:52.877Z,9.34
2024-03-05T23:25:20.742Z,9.42
2024-03-05T23:27:48.095Z,9.78
2024-03-05T23:30:19.830Z,9.32
2024-03-05T23:32:47.931Z,8.82
2024-03-05T23:35:15.980Z,9.05
2024-03-05T23:37:43.415Z,8.89
2024-03-05T23:40:11.307Z,8.83
2024-03-05T23:42:39.616Z,8.24
2024-03-05T23:45:08.076Z,8.16
2024-03-05T23:47:35.345Z,8.77
2024-03-05T23:50:03.257Z,9.01
2024-03-05T23:52:30.521Z,8.71
2024-03-05T23:55:01.102Z,8.69
2024-03-05T23:57:29.853Z,8.46
2024-03-05T23:59:57.015Z,8.53
